Time;durP1;ratioP1;P1;durP2;ratioP2;P2;SDS_P1;SDS_P2;PMS_P1;PMS_P2;Temp;Humidity;BMP_temperature;BMP_pressure;BME280_temperature;BME280_humidity;BME280_pressure;Samples;Min_cycle;Max_cycle;Signal;HPM_P1;HPM_P2
2023/12/26 00:01:57;;;;;;;0.20;0.00;;;;;;;;;;5034201;28;20096;-85
2023/12/26 00:04:23;;;;;;;0.20;0.00;;;;;;;;;;5037081;28;20172;-85
2023/12/26 00:06:49;;;;;;;0.20;0.00;;;;;;;;;;5050215;28;20033;-85
2023/12/26 00:09:18;;;;;;;0.20;0.08;;;;;;;;;;5058854;28;20036;-84
2023/12/26 00:11:58;;;;;;;0.20;0.00;;;;;;;;;;5057810;28;20043;-85
2023/12/26 00:14:32;;;;;;;0.20;0.00;;;;;;;;;;5034935;28;20057;-85
2023/12/26 00:16:58;;;;;;;0.20;0.00;;;;;;;;;;5055138;28;20064;-85
2023/12/26 00:19:35;;;;;;;0.20;0.00;;;;;;;;;;5051791;28;20037;-83
2023/12/26 00:22:06;;;;;;;0.20;0.00;;;;;;;;;;5031642;28;20044;-85
2023/12/26 00:24:35;;;;;;;0.20;0.10;;;;;;;;;;5038738;28;20032;-84
2023/12/26 00:27:04;;;;;;;0.20;0.00;;;;;;;;;;5036819;28;20040;-84
2023/12/26 00:29:30;;;;;;;0.20;0.00;;;;;;;;;;5037103;28;20047;-84
2023/12/26 00:31:58;;;;;;;0.20;0.00;;;;;;;;;;5059381;28;20072;-84
2023/12/26 00:34:27;;;;;;;0.20;0.10;;;;;;;;;;5036499;28;20044;-85
2023/12/26 00:37:04;;;;;;;0.20;0.00;;;;;;;;;;5050102;28;20496;-86
2023/12/26 00:39:36;;;;;;;0.20;0.10;;;;;;;;;;5073432;28;20136;-84
2023/12/26 00:42:11;;;;;;;0.20;0.00;;;;;;;;;;5053005;28;20037;-85
2023/12/26 00:44:37;;;;;;;0.20;0.00;;;;;;;;;;5048997;28;20037;-84
2023/12/26 00:47:10;;;;;;;0.20;0.00;;;;;;;;;;5047887;28;20096;-85
2023/12/26 00:49:36;;;;;;;0.20;0.10;;;;;;;;;;5070690;28;20056;-83
2023/12/26 00:52:11;;;;;;;0.20;0.00;;;;;;;;;;5054809;28;20484;-84
2023/12/26 00:54:39;;;;;;;0.20;0.00;;;;;;;;;;5052239;28;20044;-86
2023/12/26 00:57:08;;;;;;;0.20;0.00;;;;;;;;;;5037016;28;20051;-86
2023/12/26 00:59:35;;;;;;;0.20;0.00;;;;;;;;;;5056906;28;20043;-86
2023/12/26 01:02:04;;;;;;;0.20;0.00;;;;;;;;;;5031915;28;20048;-85
2023/12/26 01:04:44;;;;;;;0.20;0.05;;;;;;;;;;5036401;28;20085;-85
2023/12/26 01:07:18;;;;;;;0.20;0.00;;;;;;;;;;5053739;28;20040;-85
2023/12/26 01:09:44;;;;;;;0.20;0.00;;;;;;;;;;5050834;28;20033;-83
2023/12/26 01:12:13;;;;;;;0.20;0.00;;;;;;;;;;5047837;28;20174;-85
2023/12/26 01:14:40;;;;;;;0.20;0.00;;;;;;;;;;5042925;28;20037;-84
2023/12/26 01:17:06;;;;;;;0.20;0.00;;;;;;;;;;5037353;28;20032;-84
2023/12/26 01:19:32;;;;;;;0.20;0.00;;;;;;;;;;5054763;28;20036;-84
2023/12/26 01:21:58;;;;;;;0.20;0.03;;;;;;;;;;5034831;22;20417;-86
2023/12/26 01:24:24;;;;;;;0.20;0.00;;;;;;;;;;4981924;28;20050;-82
2023/12/26 01:26:50;;;;;;;0.20;0.00;;;;;;;;;;4997730;28;20061;-82
2023/12/26 01:29:16;;;;;;;0.20;0.00;;;;;;;;;;5003830;28;20105;-86
2023/12/26 01:31:45;;;;;;;0.20;0.00;;;;;;;;;;5016853;28;20046;-82
2023/12/26 01:34:19;;;;;;;0.20;0.00;;;;;;;;;;5017833;28;20045;-83
2023/12/26 01:36:48;;;;;;;0.20;0.10;;;;;;;;;;4993605;28;20129;-82
2023/12/26 01:39:15;;;;;;;0.20;0.00;;;;;;;;;;4995058;28;20049;-84
2023/12/26 01:41:42;;;;;;;0.20;0.00;;;;;;;;;;4996030;28;20498;-86
2023/12/26 01:44:08;;;;;;;0.20;0.00;;;;;;;;;;4978735;28;20034;-84
2023/12/26 01:46:40;;;;;;;0.20;0.00;;;;;;;;;;4990472;28;20046;-84
2023/12/26 01:49:06;;;;;;;0.20;0.10;;;;;;;;;;4998475;28;20035;-84
2023/12/26 01:51:32;;;;;;;0.20;0.00;;;;;;;;;;4981041;28;20413;-85
2023/12/26 01:53:59;;;;;;;0.20;0.00;;;;;;;;;;4972754;28;20064;-84
2023/12/26 01:56:29;;;;;;;0.20;0.00;;;;;;;;;;5011497;28;20541;-84
2023/12/26 01:58:55;;;;;;;0.20;0.10;;;;;;;;;;4985250;28;20046;-86
2023/12/26 02:01:21;;;;;;;0.20;0.05;;;;;;;;;;4990233;28;20129;-86
2023/12/26 02:03:52;;;;;;;0.20;0.05;;;;;;;;;;4995561;28;20041;-85
2023/12/26 02:06:18;;;;;;;0.20;0.00;;;;;;;;;;4982184;28;20057;-81
2023/12/26 02:08:44;;;;;;;0.20;0.00;;;;;;;;;;4998859;28;20072;-84
2023/12/26 02:11:10;;;;;;;0.20;0.10;;;;;;;;;;4995583;28;20091;-84
2023/12/26 02:13:36;;;;;;;0.20;0.00;;;;;;;;;;4997217;28;20053;-83
2023/12/26 02:16:07;;;;;;;0.28;0.20;;;;;;;;;;5017200;28;20104;-85
2023/12/26 02:18:33;;;;;;;4.38;0.40;;;;;;;;;;4995791;28;20049;-81
2023/12/26 02:21:00;;;;;;;0.20;0.10;;;;;;;;;;4996106;28;20038;-85
2023/12/26 02:23:28;;;;;;;0.52;0.20;;;;;;;;;;4979233;28;20046;-86
2023/12/26 02:25:54;;;;;;;0.20;0.00;;;;;;;;;;4999938;28;20076;-86
2023/12/26 02:28:21;;;;;;;0.20;0.00;;;;;;;;;;4997528;28;20055;-85
2023/12/26 02:30:50;;;;;;;0.20;0.00;;;;;;;;;;5015624;28;20029;-87
2023/12/26 02:33:17;;;;;;;0.20;0.10;;;;;;;;;;5010763;28;20424;-86
2023/12/26 02:35:44;;;;;;;0.20;0.00;;;;;;;;;;5018218;28;20038;-85
2023/12/26 02:38:10;;;;;;;1.65;1.38;;;;;;;;;;5010922;28;20052;-83
2023/12/26 02:40:36;;;;;;;0.20;0.10;;;;;;;;;;4994379;28;20062;-85
2023/12/26 02:43:03;;;;;;;0.20;0.10;;;;;;;;;;4983577;28;20136;-83
2023/12/26 02:45:29;;;;;;;0.20;0.10;;;;;;;;;;4977033;28;20042;-85
2023/12/26 02:47:55;;;;;;;0.60;0.05;;;;;;;;;;4980205;28;20117;-84
2023/12/26 02:50:21;;;;;;;0.20;0.00;;;;;;;;;;4979555;28;20033;-85
2023/12/26 02:52:47;;;;;;;1.27;1.17;;;;;;;;;;4991137;28;20044;-85
2023/12/26 02:55:13;;;;;;;0.20;0.00;;;;;;;;;;4989263;28;20080;-85
2023/12/26 02:57:39;;;;;;;0.20;0.10;;;;;;;;;;4976242;28;20680;-84
2023/12/26 03:00:06;;;;;;;0.20;0.10;;;;;;;;;;4979810;28;20120;-85
2023/12/26 03:02:34;;;;;;;0.20;0.00;;;;;;;;;;4964398;28;20041;-84
2023/12/26 03:05:00;;;;;;;0.20;0.00;;;;;;;;;;4980500;28;20037;-87
2023/12/26 03:07:30;;;;;;;0.20;0.00;;;;;;;;;;4990821;28;20065;-84
2023/12/26 03:09:58;;;;;;;0.20;0.00;;;;;;;;;;4978170;28;20041;-86
2023/12/26 03:12:24;;;;;;;0.20;0.17;;;;;;;;;;4977179;28;20042;-85
2023/12/26 03:14:50;;;;;;;0.20;0.10;;;;;;;;;;4988255;28;20396;-84
2023/12/26 03:17:16;;;;;;;0.20;0.00;;;;;;;;;;4979664;28;20056;-84
2023/12/26 03:19:42;;;;;;;0.20;0.00;;;;;;;;;;4991835;28;20034;-85
2023/12/26 03:22:08;;;;;;;0.20;0.00;;;;;;;;;;4978843;28;20052;-84
2023/12/26 03:24:34;;;;;;;0.20;0.10;;;;;;;;;;4977174;28;20046;-82
2023/12/26 03:27:01;;;;;;;0.20;0.00;;;;;;;;;;4973531;28;20065;-85
2023/12/26 03:29:27;;;;;;;0.20;0.00;;;;;;;;;;4987318;28;20049;-83
2023/12/26 03:31:53;;;;;;;0.30;0.30;;;;;;;;;;4973166;28;20045;-85
2023/12/26 03:34:19;;;;;;;0.20;0.10;;;;;;;;;;4976097;28;20060;-84
2023/12/26 03:36:45;;;;;;;0.20;0.00;;;;;;;;;;4974761;28;20489;-84
2023/12/26 03:39:12;;;;;;;0.20;0.10;;;;;;;;;;4988060;28;20045;-83
2023/12/26 03:41:44;;;;;;;0.20;0.00;;;;;;;;;;4974517;28;20048;-85
2023/12/26 03:44:10;;;;;;;0.20;0.00;;;;;;;;;;5006480;28;20442;-85
2023/12/26 03:46:36;;;;;;;0.20;0.10;;;;;;;;;;4977575;28;20088;-86
2023/12/26 03:49:02;;;;;;;0.20;0.00;;;;;;;;;;4982760;28;20069;-84
2023/12/26 03:51:28;;;;;;;0.20;0.00;;;;;;;;;;4976054;28;20084;-86
2023/12/26 03:53:54;;;;;;;0.20;0.10;;;;;;;;;;4973936;28;20042;-83
2023/12/26 03:56:20;;;;;;;0.20;0.00;;;;;;;;;;4969880;28;20073;-84
2023/12/26 03:58:46;;;;;;;0.20;0.00;;;;;;;;;;5008844;28;20030;-84
2023/12/26 04:01:13;;;;;;;0.20;0.00;;;;;;;;;;4996782;28;20041;-82
2023/12/26 04:03:39;;;;;;;0.20;0.00;;;;;;;;;;4990389;28;20042;-85
2023/12/26 04:06:05;;;;;;;1.02;0.98;;;;;;;;;;4974410;28;20046;-81
2023/12/26 04:08:31;;;;;;;0.20;0.00;;;;;;;;;;4973375;28;20105;-85
2023/12/26 04:10:57;;;;;;;0.20;0.00;;;;;;;;;;4975756;28;20414;-84
2023/12/26 04:13:23;;;;;;;0.20;0.00;;;;;;;;;;4971884;28;20457;-83
2023/12/26 04:15:49;;;;;;;0.20;0.00;;;;;;;;;;4973291;28;20064;-83
2023/12/26 04:18:15;;;;;;;0.20;0.00;;;;;;;;;;4972973;28;20057;-83
2023/12/26 04:20:41;;;;;;;0.20;0.00;;;;;;;;;;5006301;28;20042;-81
2023/12/26 04:23:08;;;;;;;0.20;0.05;;;;;;;;;;4976295;28;20056;-85
2023/12/26 04:25:35;;;;;;;0.20;0.00;;;;;;;;;;4975912;28;20060;-84
2023/12/26 04:28:01;;;;;;;0.20;0.00;;;;;;;;;;5009235;28;20034;-87
2023/12/26 04:30:28;;;;;;;0.20;0.00;;;;;;;;;;4975704;28;20048;-82
2023/12/26 04:32:54;;;;;;;0.20;0.00;;;;;;;;;;4980658;28;20136;-83
2023/12/26 04:35:20;;;;;;;0.20;0.00;;;;;;;;;;4978323;28;20993;-83
2023/12/26 04:37:46;;;;;;;0.20;0.10;;;;;;;;;;4982209;28;20038;-86
2023/12/26 04:40:12;;;;;;;0.30;0.20;;;;;;;;;;4967993;28;20042;-84
2023/12/26 04:42:38;;;;;;;0.20;0.00;;;;;;;;;;5006337;28;20038;-87
2023/12/26 04:45:04;;;;;;;0.30;0.30;;;;;;;;;;4971306;28;20091;-83
2023/12/26 04:47:30;;;;;;;0.20;0.00;;;;;;;;;;4977508;28;20060;-82
2023/12/26 04:49:59;;;;;;;0.20;0.00;;;;;;;;;;4989154;28;20034;-86
2023/12/26 04:52:26;;;;;;;0.20;0.10;;;;;;;;;;4974694;28;20116;-81
2023/12/26 04:54:52;;;;;;;0.20;0.00;;;;;;;;;;4994463;28;20383;-84
2023/12/26 04:57:18;;;;;;;0.20;0.00;;;;;;;;;;5005374;28;20129;-84
2023/12/26 04:59:44;;;;;;;0.20;0.00;;;;;;;;;;4973046;28;20057;-84
2023/12/26 05:02:13;;;;;;;0.20;0.10;;;;;;;;;;4971781;28;20041;-84
2023/12/26 05:04:39;;;;;;;0.20;0.00;;;;;;;;;;4994164;28;20052;-83
2023/12/26 05:07:08;;;;;;;0.20;0.00;;;;;;;;;;4974930;28;20054;-85
2023/12/26 05:09:35;;;;;;;0.20;0.00;;;;;;;;;;4991104;28;20140;-84
2023/12/26 05:12:01;;;;;;;0.20;0.00;;;;;;;;;;4976092;28;20474;-84
2023/12/26 05:14:27;;;;;;;0.20;0.00;;;;;;;;;;4977439;28;20041;-84
2023/12/26 05:16:54;;;;;;;0.20;0.00;;;;;;;;;;5006287;28;20038;-87
2023/12/26 05:19:20;;;;;;;1.85;0.88;;;;;;;;;;4988082;28;20030;-85
2023/12/26 05:21:46;;;;;;;0.20;0.10;;;;;;;;;;4972272;28;20308;-84
2023/12/26 05:24:12;;;;;;;0.20;0.00;;;;;;;;;;4966645;28;20049;-85
2023/12/26 05:26:42;;;;;;;0.20;0.00;;;;;;;;;;4987896;28;21441;-85
2023/12/26 05:29:08;;;;;;;0.20;0.00;;;;;;;;;;4972893;28;20517;-85
2023/12/26 05:31:34;;;;;;;0.20;0.00;;;;;;;;;;4992572;28;20034;-83
2023/12/26 05:34:03;;;;;;;0.20;0.10;;;;;;;;;;4991066;28;20125;-84
2023/12/26 05:36:29;;;;;;;0.20;0.00;;;;;;;;;;4991381;28;20046;-86
2023/12/26 05:38:55;;;;;;;0.20;0.00;;;;;;;;;;4990716;28;20049;-84
2023/12/26 05:41:21;;;;;;;0.20;0.00;;;;;;;;;;5007899;28;20041;-83
2023/12/26 05:43:47;;;;;;;0.20;0.00;;;;;;;;;;4976140;28;20040;-85
2023/12/26 05:46:18;;;;;;;0.20;0.00;;;;;;;;;;4977906;28;20046;-87
2023/12/26 05:48:44;;;;;;;0.20;0.00;;;;;;;;;;4977450;28;20038;-85
2023/12/26 05:51:11;;;;;;;0.20;0.00;;;;;;;;;;4979712;28;20042;-84
2023/12/26 05:53:37;;;;;;;0.20;0.00;;;;;;;;;;4981191;28;20469;-85
2023/12/26 05:56:03;;;;;;;0.85;0.50;;;;;;;;;;4974121;28;20038;-84
2023/12/26 05:58:29;;;;;;;0.20;0.05;;;;;;;;;;4982209;28;20686;-85
2023/12/26 06:00:55;;;;;;;0.20;0.00;;;;;;;;;;4985443;28;20124;-86
2023/12/26 06:03:21;;;;;;;0.20;0.00;;;;;;;;;;4977829;28;20041;-81
2023/12/26 06:05:47;;;;;;;0.20;0.00;;;;;;;;;;4991848;28;20411;-84
2023/12/26 06:08:17;;;;;;;0.20;0.10;;;;;;;;;;4996317;28;20037;-85
2023/12/26 06:10:43;;;;;;;0.20;0.00;;;;;;;;;;4983306;28;20046;-81
2023/12/26 06:13:11;;;;;;;0.25;0.25;;;;;;;;;;4985987;28;20038;-82
2023/12/26 06:15:37;;;;;;;0.20;0.03;;;;;;;;;;4999931;28;20114;-83
2023/12/26 06:18:03;;;;;;;0.20;0.00;;;;;;;;;;4984259;28;20050;-86
2023/12/26 06:20:29;;;;;;;0.20;0.00;;;;;;;;;;4986081;28;20467;-84
2023/12/26 06:22:58;;;;;;;0.20;0.10;;;;;;;;;;5014183;28;20467;-83
2023/12/26 06:25:24;;;;;;;0.20;0.00;;;;;;;;;;4998604;28;20061;-82
2023/12/26 06:27:50;;;;;;;0.82;0.52;;;;;;;;;;5014765;28;20029;-83
2023/12/26 06:30:16;;;;;;;0.20;0.00;;;;;;;;;;4996512;28;20056;-84
2023/12/26 06:32:42;;;;;;;0.20;0.00;;;;;;;;;;4981588;28;20041;-80
2023/12/26 06:35:08;;;;;;;0.20;0.00;;;;;;;;;;5007488;28;20049;-82
2023/12/26 06:37:34;;;;;;;0.20;0.00;;;;;;;;;;4979562;28;20045;-85
2023/12/26 06:40:00;;;;;;;0.20;0.00;;;;;;;;;;4981427;28;20101;-85
2023/12/26 06:42:26;;;;;;;0.20;0.00;;;;;;;;;;4979116;28;20426;-82
2023/12/26 06:44:52;;;;;;;0.20;0.00;;;;;;;;;;4978899;28;20637;-80
2023/12/26 06:47:18;;;;;;;0.20;0.00;;;;;;;;;;4992961;28;20097;-84
2023/12/26 06:49:45;;;;;;;0.20;0.00;;;;;;;;;;4980603;28;20241;-85
2023/12/26 06:52:14;;;;;;;0.20;0.00;;;;;;;;;;4996883;28;20045;-83
2023/12/26 06:54:41;;;;;;;0.20;0.00;;;;;;;;;;4979264;28;20042;-82
2023/12/26 06:57:16;;;;;;;0.20;0.00;;;;;;;;;;5012946;28;20042;-83
2023/12/26 06:59:47;;;;;;;0.20;0.00;;;;;;;;;;5004097;28;20065;-85
2023/12/26 07:02:13;;;;;;;0.20;0.00;;;;;;;;;;4972988;28;20041;-83
2023/12/26 07:04:43;;;;;;;0.20;0.00;;;;;;;;;;4975712;28;20053;-86
2023/12/26 07:07:09;;;;;;;0.20;0.00;;;;;;;;;;4994647;28;20046;-84
2023/12/26 07:09:35;;;;;;;0.20;0.10;;;;;;;;;;4976467;28;20037;-82
2023/12/26 07:12:01;;;;;;;0.20;0.00;;;;;;;;;;4992448;28;20125;-82
2023/12/26 07:14:28;;;;;;;0.20;0.00;;;;;;;;;;4976107;28;20064;-84
2023/12/26 07:16:54;;;;;;;0.20;0.00;;;;;;;;;;4994546;28;20048;-85
2023/12/26 07:19:20;;;;;;;0.52;0.52;;;;;;;;;;5004622;28;20065;-84
2023/12/26 07:21:49;;;;;;;0.20;0.00;;;;;;;;;;4996638;22;20186;-84
2023/12/26 07:24:20;;;;;;;0.25;0.10;;;;;;;;;;5048658;28;20473;-83
2023/12/26 07:26:47;;;;;;;0.20;0.00;;;;;;;;;;5050343;28;20056;-84
2023/12/26 07:29:13;;;;;;;0.20;0.10;;;;;;;;;;5047391;28;20358;-85
2023/12/26 07:31:39;;;;;;;0.20;0.00;;;;;;;;;;5049212;28;20113;-83
2023/12/26 07:34:09;;;;;;;0.20;0.00;;;;;;;;;;5046350;28;20767;-83
2023/12/26 07:36:35;;;;;;;0.20;0.00;;;;;;;;;;5028754;28;20060;-84
2023/12/26 07:39:05;;;;;;;1.00;1.00;;;;;;;;;;5035473;28;20054;-84
2023/12/26 07:41:31;;;;;;;0.20;0.00;;;;;;;;;;5040306;28;20032;-84
2023/12/26 07:43:57;;;;;;;0.20;0.00;;;;;;;;;;5029445;28;20802;-82
2023/12/26 07:46:26;;;;;;;0.20;0.00;;;;;;;;;;5032742;28;20042;-85
2023/12/26 07:49:01;;;;;;;0.20;0.10;;;;;;;;;;5051498;28;20578;-84
2023/12/26 07:51:46;;;;;;;0.20;0.10;;;;;;;;;;5041524;28;20113;-85
2023/12/26 07:54:22;;;;;;;0.20;0.10;;;;;;;;;;5065023;28;20052;-85
2023/12/26 07:56:57;;;;;;;0.20;0.00;;;;;;;;;;5048616;28;20515;-84
2023/12/26 07:59:26;;;;;;;0.38;0.38;;;;;;;;;;5048869;28;20118;-85
2023/12/26 08:01:56;;;;;;;0.20;0.10;;;;;;;;;;5030499;28;20044;-84
2023/12/26 08:04:25;;;;;;;0.20;0.10;;;;;;;;;;5045557;28;20109;-83
2023/12/26 08:06:51;;;;;;;0.20;0.00;;;;;;;;;;5030440;28;20037;-85
2023/12/26 08:09:36;;;;;;;0.20;0.00;;;;;;;;;;5032384;28;20127;-84
2023/12/26 08:12:04;;;;;;;0.20;0.00;;;;;;;;;;5032553;28;20045;-85
2023/12/26 08:14:30;;;;;;;0.20;0.00;;;;;;;;;;5037985;28;20040;-85
2023/12/26 08:16:59;;;;;;;0.20;0.00;;;;;;;;;;5050802;28;20063;-84
2023/12/26 08:19:31;;;;;;;0.20;0.00;;;;;;;;;;5027623;28;20059;-85
2023/12/26 08:21:57;;;;;;;0.20;0.00;;;;;;;;;;5050761;28;20036;-84
2023/12/26 08:24:26;;;;;;;0.20;0.00;;;;;;;;;;5051310;28;20043;-87
2023/12/26 08:26:53;;;;;;;0.20;0.00;;;;;;;;;;5052471;28;20043;-83
2023/12/26 08:29:27;;;;;;;0.20;0.10;;;;;;;;;;5034564;28;20067;-85
2023/12/26 08:32:02;;;;;;;0.55;0.47;;;;;;;;;;5050554;28;20387;-84
2023/12/26 08:34:29;;;;;;;0.20;0.00;;;;;;;;;;5049635;28;20091;-85
2023/12/26 08:36:55;;;;;;;0.20;0.00;;;;;;;;;;5046352;28;20159;-85
2023/12/26 08:39:24;;;;;;;0.20;0.05;;;;;;;;;;5054566;28;20037;-85
2023/12/26 08:42:19;;;;;;;0.20;0.00;;;;;;;;;;5049494;28;20079;-87
2023/12/26 08:44:57;;;;;;;0.20;0.00;;;;;;;;;;5031084;28;20045;-87
2023/12/26 08:47:26;;;;;;;0.20;0.08;;;;;;;;;;5051744;28;20040;-84
2023/12/26 08:50:01;;;;;;;0.20;0.00;;;;;;;;;;5051270;28;20044;-86
2023/12/26 08:52:42;;;;;;;0.20;0.00;;;;;;;;;;5028697;28;20124;-86
2023/12/26 08:55:08;;;;;;;0.20;0.00;;;;;;;;;;5048699;28;20052;-85
2023/12/26 08:57:34;;;;;;;0.20;0.10;;;;;;;;;;5049114;28;20041;-86
2023/12/26 09:00:06;;;;;;;0.20;0.00;;;;;;;;;;5039763;28;20373;-85
2023/12/26 09:02:35;;;;;;;0.20;0.08;;;;;;;;;;5053816;28;20036;-84
2023/12/26 09:05:02;;;;;;;0.20;0.00;;;;;;;;;;5031830;28;20140;-86
2023/12/26 09:07:33;;;;;;;0.30;0.20;;;;;;;;;;5047078;28;20047;-86
2023/12/26 09:10:02;;;;;;;0.20;0.17;;;;;;;;;;5033694;28;20037;-84
2023/12/26 09:12:28;;;;;;;0.20;0.00;;;;;;;;;;5056051;28;20106;-84
2023/12/26 09:15:01;;;;;;;0.20;0.00;;;;;;;;;;5035174;28;20040;-86
2023/12/26 09:17:27;;;;;;;0.20;0.00;;;;;;;;;;5054632;28;20059;-85
2023/12/26 09:19:56;;;;;;;1.20;0.55;;;;;;;;;;5029364;28;20047;-87
2023/12/26 09:22:27;;;;;;;0.20;0.00;;;;;;;;;;5053751;28;20059;-86
2023/12/26 09:25:48;;;;;;;0.20;0.00;;;;;;;;;;5037750;28;20044;-84
2023/12/26 09:27:52;;;;;;;0.20;0.00;;;;;;;;;;5043921;28;20513;-86
2023/12/26 09:30:24;;;;;;;0.20;0.00;;;;;;;;;;5035930;28;20040;-85
2023/12/26 09:32:50;;;;;;;0.20;0.00;;;;;;;;;;5041271;28;20044;-88
2023/12/26 09:35:16;;;;;;;0.20;0.00;;;;;;;;;;5030462;28;20052;-85
2023/12/26 09:37:42;;;;;;;0.20;0.00;;;;;;;;;;5035119;28;20043;-86
2023/12/26 09:40:08;;;;;;;0.20;0.00;;;;;;;;;;5040162;28;20048;-86
2023/12/26 09:42:35;;;;;;;0.20;0.00;;;;;;;;;;5029533;28;20671;-83
2023/12/26 09:45:03;;;;;;;0.20;0.10;;;;;;;;;;5037791;28;20040;-84
2023/12/26 09:47:30;;;;;;;0.20;0.00;;;;;;;;;;5051249;28;20401;-85
2023/12/26 09:50:08;;;;;;;0.20;0.08;;;;;;;;;;5060820;28;20036;-87
2023/12/26 09:52:38;;;;;;;0.20;0.00;;;;;;;;;;5054255;28;20055;-84
2023/12/26 09:55:12;;;;;;;0.20;0.00;;;;;;;;;;5037173;28;20516;-85
2023/12/26 09:57:40;;;;;;;0.30;0.22;;;;;;;;;;5036502;28;20036;-84
2023/12/26 10:00:09;;;;;;;0.20;0.00;;;;;;;;;;5032974;28;20407;-86
2023/12/26 10:02:43;;;;;;;0.20;0.10;;;;;;;;;;5050682;28;20048;-86
2023/12/26 10:05:15;;;;;;;0.20;0.10;;;;;;;;;;5036609;28;20044;-85
2023/12/26 10:07:47;;;;;;;1.30;0.95;;;;;;;;;;5059803;28;20419;-85
2023/12/26 10:10:20;;;;;;;;;;;;;;;;;;5060393;28;20041;-84
2023/12/26 10:13:00;;;;;;;0.20;0.00;;;;;;;;;;5037294;28;19916;-86
2023/12/26 10:15:27;;;;;;;0.20;0.10;;;;;;;;;;5039532;28;20467;-85
2023/12/26 10:17:54;;;;;;;0.43;0.43;;;;;;;;;;5055229;28;20039;-84
2023/12/26 10:20:23;;;;;;;0.55;0.55;;;;;;;;;;5039805;28;20036;-88
2023/12/26 10:22:49;;;;;;;0.20;0.00;;;;;;;;;;5037674;28;20041;-84
2023/12/26 10:25:27;;;;;;;0.30;0.20;;;;;;;;;;5035116;28;20044;-88
2023/12/26 10:27:57;;;;;;;0.20;0.05;;;;;;;;;;5061108;28;20044;-86
2023/12/26 10:30:30;;;;;;;0.20;0.08;;;;;;;;;;5036857;28;20053;-84
2023/12/26 10:33:02;;;;;;;0.20;0.00;;;;;;;;;;5033988;28;20044;-85
2023/12/26 10:35:29;;;;;;;0.20;0.00;;;;;;;;;;5067739;28;20397;-84
2023/12/26 10:37:58;;;;;;;0.20;0.10;;;;;;;;;;5047115;28;20037;-85
2023/12/26 10:40:27;;;;;;;0.20;0.10;;;;;;;;;;5028675;28;20481;-84
2023/12/26 10:42:55;;;;;;;0.20;0.10;;;;;;;;;;5035691;28;20025;-84
2023/12/26 10:45:30;;;;;;;0.73;0.73;;;;;;;;;;5051017;28;20093;-87
2023/12/26 10:48:03;;;;;;;0.20;0.00;;;;;;;;;;5028826;28;20048;-84
2023/12/26 10:50:33;;;;;;;0.20;0.10;;;;;;;;;;5049534;28;20033;-87
2023/12/26 10:53:22;;;;;;;1.13;1.02;;;;;;;;;;5040024;28;20044;-86
2023/12/26 10:55:50;;;;;;;0.20;0.00;;;;;;;;;;5036102;28;20511;-84
2023/12/26 13:53:36;;;;;;;0.20;0.00;;;;;;;;;;5090160;28;20040;-83
2023/12/26 13:56:02;;;;;;;0.20;0.00;;;;;;;;;;5075267;28;20032;-84
2023/12/26 13:58:28;;;;;;;0.20;0.00;;;;;;;;;;5072910;28;20039;-88
2023/12/26 14:00:54;;;;;;;0.20;0.10;;;;;;;;;;5072667;28;20036;-86
2023/12/26 14:03:20;;;;;;;0.20;0.00;;;;;;;;;;5093338;28;20108;-83
2023/12/26 14:05:48;;;;;;;0.20;0.00;;;;;;;;;;5090156;28;20032;-86
2023/12/26 14:08:16;;;;;;;0.20;0.00;;;;;;;;;;5083565;28;20114;-83
2023/12/26 14:10:43;;;;;;;0.20;0.10;;;;;;;;;;5081177;28;20027;-85
2023/12/26 14:13:09;;;;;;;0.20;0.00;;;;;;;;;;5085946;28;20027;-86
2023/12/26 14:15:35;;;;;;;0.20;0.00;;;;;;;;;;5093283;28;20044;-85
2023/12/26 14:18:03;;;;;;;0.20;0.00;;;;;;;;;;5080130;27;20559;-86
2023/12/26 14:20:29;;;;;;;0.20;0.00;;;;;;;;;;5074797;28;20061;-85
2023/12/26 14:22:55;;;;;;;0.20;0.03;;;;;;;;;;5095936;28;20043;-86
2023/12/26 14:25:21;;;;;;;0.20;0.10;;;;;;;;;;5080947;27;20062;-82
2023/12/26 14:27:47;;;;;;;0.20;0.00;;;;;;;;;;5082790;28;20095;-85
2023/12/26 14:30:13;;;;;;;0.20;0.00;;;;;;;;;;5076626;27;20509;-85
2023/12/26 14:32:39;;;;;;;0.20;0.10;;;;;;;;;;5095266;28;20032;-84
2023/12/26 14:35:05;;;;;;;0.20;0.00;;;;;;;;;;5101682;28;20051;-86
2023/12/26 14:37:31;;;;;;;0.20;0.00;;;;;;;;;;5078793;28;20088;-86
2023/12/26 14:39:57;;;;;;;0.20;0.00;;;;;;;;;;5079740;28;20039;-85
2023/12/26 14:42:23;;;;;;;0.20;0.00;;;;;;;;;;5075621;28;20051;-85
2023/12/26 14:44:49;;;;;;;0.20;0.00;;;;;;;;;;5078481;28;20408;-84
2023/12/26 14:47:16;;;;;;;0.20;0.00;;;;;;;;;;5097052;28;20481;-82
2023/12/26 14:49:42;;;;;;;0.20;0.00;;;;;;;;;;5096203;28;20039;-83
2023/12/26 14:52:08;;;;;;;0.20;0.00;;;;;;;;;;5087288;28;20066;-83
2023/12/26 14:54:34;;;;;;;0.20;0.00;;;;;;;;;;5108557;27;20956;-84
2023/12/26 14:57:00;;;;;;;0.20;0.00;;;;;;;;;;5097091;28;20126;-85
2023/12/26 14:59:26;;;;;;;0.20;0.10;;;;;;;;;;5073744;28;20061;-85
2023/12/26 15:01:52;;;;;;;0.20;0.00;;;;;;;;;;5081408;28;20046;-84
2023/12/26 15:04:18;;;;;;;0.20;0.00;;;;;;;;;;5089960;28;20067;-85
2023/12/26 15:06:45;;;;;;;0.20;0.00;;;;;;;;;;5093615;28;20512;-86
2023/12/26 15:09:12;;;;;;;0.20;0.00;;;;;;;;;;5065747;28;20054;-85
2023/12/26 15:11:39;;;;;;;0.20;0.00;;;;;;;;;;5087662;28;20039;-87
2023/12/26 15:14:05;;;;;;;0.20;0.00;;;;;;;;;;5070279;27;20289;-87
2023/12/26 15:16:31;;;;;;;0.20;0.05;;;;;;;;;;5073545;28;20487;-86
2023/12/26 15:18:57;;;;;;;0.20;0.00;;;;;;;;;;5070966;28;20098;-86
2023/12/26 15:21:23;;;;;;;0.20;0.00;;;;;;;;;;5071960;28;20043;-86
2023/12/26 15:23:51;;;;;;;0.20;0.00;;;;;;;;;;5071171;27;20158;-85
2023/12/26 15:26:17;;;;;;;0.20;0.00;;;;;;;;;;5086498;28;20049;-86
2023/12/26 15:28:43;;;;;;;0.20;0.00;;;;;;;;;;5070551;28;20038;-89
2023/12/26 15:31:14;;;;;;;0.20;0.10;;;;;;;;;;5072053;28;20213;-86
2023/12/26 15:33:42;;;;;;;0.20;0.00;;;;;;;;;;5091186;28;20448;-86
2023/12/26 15:36:08;;;;;;;0.20;0.00;;;;;;;;;;5090018;28;20089;-85
2023/12/26 15:38:34;;;;;;;0.20;0.00;;;;;;;;;;5087824;27;20032;-87
2023/12/26 15:41:00;;;;;;;0.20;0.00;;;;;;;;;;5073820;28;20067;-85
2023/12/26 15:43:27;;;;;;;0.20;0.00;;;;;;;;;;5090661;28;20065;-85
2023/12/26 15:45:53;;;;;;;0.20;0.00;;;;;;;;;;5083730;28;20385;-85
2023/12/26 15:48:19;;;;;;;0.20;0.00;;;;;;;;;;5066911;28;20031;-83
2023/12/26 15:50:45;;;;;;;0.20;0.10;;;;;;;;;;5080321;28;20086;-86
2023/12/26 15:53:11;;;;;;;0.20;0.00;;;;;;;;;;5080446;28;20043;-90
2023/12/26 15:55:37;;;;;;;0.20;0.00;;;;;;;;;;5073891;28;20541;-85
2023/12/26 15:58:03;;;;;;;0.20;0.00;;;;;;;;;;5092689;28;20114;-84
2023/12/26 16:00:29;;;;;;;0.20;0.00;;;;;;;;;;5110808;27;20103;-84
2023/12/26 16:02:55;;;;;;;0.20;0.00;;;;;;;;;;5092798;28;20410;-87
2023/12/26 16:05:21;;;;;;;0.20;0.05;;;;;;;;;;5079774;28;20085;-83
2023/12/26 16:07:47;;;;;;;0.20;0.00;;;;;;;;;;5105106;27;20028;-85
2023/12/26 16:10:13;;;;;;;0.20;0.00;;;;;;;;;;5073376;28;20036;-85
2023/12/26 16:12:40;;;;;;;0.20;0.00;;;;;;;;;;5079032;28;20467;-84
2023/12/26 16:15:07;;;;;;;0.20;0.00;;;;;;;;;;5089775;28;20071;-86
2023/12/26 16:17:35;;;;;;;0.20;0.00;;;;;;;;;;5114574;28;20043;-85
2023/12/26 16:20:01;;;;;;;0.20;0.00;;;;;;;;;;5081281;28;20390;-85
2023/12/26 16:22:27;;;;;;;0.20;0.00;;;;;;;;;;5080771;28;20262;-83
2023/12/26 16:24:53;;;;;;;0.20;0.00;;;;;;;;;;5115710;28;20057;-84
2023/12/26 16:27:20;;;;;;;0.20;0.10;;;;;;;;;;5111930;27;20039;-83
2023/12/26 16:29:46;;;;;;;0.20;0.10;;;;;;;;;;5076681;27;20055;-83
2023/12/26 16:32:14;;;;;;;0.20;0.10;;;;;;;;;;5069717;28;20042;-82
2023/12/26 16:34:40;;;;;;;0.20;0.00;;;;;;;;;;5077623;28;20074;-84
2023/12/26 16:37:06;;;;;;;0.20;0.00;;;;;;;;;;5087785;28;20036;-86
2023/12/26 16:39:32;;;;;;;0.20;0.00;;;;;;;;;;5080221;28;20035;-85
2023/12/26 16:42:07;;;;;;;0.20;0.00;;;;;;;;;;5092810;28;20119;-85
2023/12/26 16:44:34;;;;;;;0.20;0.00;;;;;;;;;;5077965;28;20054;-84
2023/12/26 16:47:01;;;;;;;0.20;0.00;;;;;;;;;;5112269;28;20118;-86
2023/12/26 16:49:27;;;;;;;0.20;0.10;;;;;;;;;;5076533;28;20032;-86
2023/12/26 16:51:53;;;;;;;0.20;0.00;;;;;;;;;;5073968;28;20032;-82
2023/12/26 16:54:19;;;;;;;0.20;0.00;;;;;;;;;;5094938;28;20042;-84
2023/12/26 16:56:45;;;;;;;0.20;0.08;;;;;;;;;;5094489;28;20354;-84
2023/12/26 16:59:11;;;;;;;0.20;0.10;;;;;;;;;;5076298;28;20144;-86
2023/12/26 17:01:41;;;;;;;0.20;0.00;;;;;;;;;;5076459;28;20045;-87
2023/12/26 17:04:07;;;;;;;0.20;0.00;;;;;;;;;;5105067;28;20035;-84
2023/12/26 17:06:39;;;;;;;0.20;0.00;;;;;;;;;;5093931;28;20047;-84
2023/12/26 17:09:05;;;;;;;0.20;0.10;;;;;;;;;;5101187;28;20048;-86
2023/12/26 17:11:31;;;;;;;0.20;0.00;;;;;;;;;;5118054;28;20286;-83
2023/12/26 17:13:58;;;;;;;0.20;0.10;;;;;;;;;;5085773;28;20042;-84
2023/12/26 17:16:24;;;;;;;0.20;0.00;;;;;;;;;;5094219;28;20019;-85
2023/12/26 17:18:50;;;;;;;0.30;0.22;;;;;;;;;;5107566;28;20532;-85
2023/12/26 17:21:17;;;;;;;0.20;0.00;;;;;;;;;;5091401;28;20040;-86
2023/12/26 17:23:43;;;;;;;0.20;0.05;;;;;;;;;;5092491;28;20396;-84
2023/12/26 17:26:09;;;;;;;0.20;0.00;;;;;;;;;;5101214;28;20047;-86
2023/12/26 17:28:35;;;;;;;0.20;0.00;;;;;;;;;;5083406;28;20067;-87
2023/12/26 17:31:01;;;;;;;0.20;0.00;;;;;;;;;;5078890;28;20036;-83
2023/12/26 17:33:27;;;;;;;0.20;0.10;;;;;;;;;;5110752;28;20038;-83
2023/12/26 17:35:53;;;;;;;0.20;0.00;;;;;;;;;;5127995;27;20075;-82
2023/12/26 17:38:19;;;;;;;0.20;0.10;;;;;;;;;;5106699;28;20036;-83
2023/12/26 17:40:45;;;;;;;0.20;0.00;;;;;;;;;;5087235;27;20080;-83
2023/12/26 17:43:11;;;;;;;0.20;0.10;;;;;;;;;;5116486;28;20047;-83